Time;durP1;ratioP1;P1;durP2;ratioP2;P2;SDS_P1;SDS_P2;PMS_P1;PMS_P2;Temp;Humidity;BMP_temperature;BMP_pressure;BME280_temperature;BME280_humidity;BME280_pressure;Samples;Min_cycle;Max_cycle;Signal;HPM_P1;HPM_P2
2021/06/03 00:01:50;;;;;;;4.83;2.90;;;17.50;84.50;;;;;;5056535;28;20878;-66
2021/06/03 00:04:17;;;;;;;7.60;3.50;;;17.50;84.80;;;;;;5054622;28;20783;-66
2021/06/03 00:06:43;;;;;;;5.70;2.83;;;17.50;85.80;;;;;;5049691;28;20791;-67
2021/06/03 00:09:09;;;;;;;6.17;3.10;;;17.50;84.70;;;;;;5034967;28;20425;-67
2021/06/03 00:11:35;;;;;;;6.20;3.37;;;17.50;84.50;;;;;;5036524;28;20205;-66
2021/06/03 00:14:02;;;;;;;7.50;3.60;;;17.60;84.30;;;;;;5035847;28;20482;-66
2021/06/03 00:16:33;;;;;;;5.00;2.60;;;17.60;84.20;;;;;;5036299;28;20423;-68
2021/06/03 00:19:05;;;;;;;5.83;2.87;;;17.60;84.70;;;;;;5036024;28;20496;-67
2021/06/03 00:21:32;;;;;;;5.60;2.63;;;17.60;84.00;;;;;;5049215;28;20437;-69
2021/06/03 00:23:58;;;;;;;5.93;3.40;;;17.60;82.90;;;;;;5055627;28;20419;-66
2021/06/03 00:26:23;;;;;;;5.43;3.03;;;17.60;83.40;;;;;;5055995;28;20416;-67
2021/06/03 00:28:49;;;;;;;5.20;3.40;;;17.60;83.80;;;;;;5055816;28;20408;-68
2021/06/03 00:31:15;;;;;;;5.60;2.70;;;17.60;84.00;;;;;;5055998;28;20248;-67
2021/06/03 00:33:41;;;;;;;4.37;2.67;;;17.60;83.80;;;;;;5054198;28;20207;-66
2021/06/03 00:36:08;;;;;;;4.67;2.73;;;17.60;83.90;;;;;;5043775;28;20178;-67
2021/06/03 00:38:35;;;;;;;5.30;2.50;;;17.50;84.00;;;;;;5034566;28;20625;-67
2021/06/03 00:41:01;;;;;;;5.20;2.67;;;17.50;84.90;;;;;;5035816;28;20508;-67
2021/06/03 00:43:27;;;;;;;5.90;3.03;;;17.50;85.30;;;;;;5035286;28;20496;-67
2021/06/03 00:45:52;;;;;;;6.00;2.90;;;17.40;85.50;;;;;;5035871;28;20656;-66
2021/06/03 00:48:20;;;;;;;5.27;2.70;;;17.40;86.30;;;;;;5035637;28;20180;-67
2021/06/03 00:50:50;;;;;;;5.90;2.97;;;17.40;87.00;;;;;;5051263;28;20547;-66
2021/06/03 00:53:16;;;;;;;5.73;2.93;;;17.30;87.50;;;;;;5055165;28;20408;-66
2021/06/03 00:55:52;;;;;;;4.90;2.50;;;17.20;88.10;;;;;;5055633;28;20510;-67
2021/06/03 00:58:18;;;;;;;7.10;2.97;;;17.10;89.90;;;;;;5047819;28;20514;-66
2021/06/03 01:00:45;;;;;;;4.80;2.60;;;17.00;90.10;;;;;;5035583;28;20412;-67
2021/06/03 01:03:12;;;;;;;4.57;2.60;;;16.90;90.40;;;;;;5033966;28;20519;-66
2021/06/03 01:05:59;;;;;;;5.63;2.40;;;16.80;90.70;;;;;;5041854;28;20798;-66
2021/06/03 01:08:32;;;;;;;4.37;2.43;;;16.70;91.20;;;;;;5055329;28;20416;-66
2021/06/03 01:11:10;;;;;;;5.93;3.40;;;16.70;91.80;;;;;;5055363;28;20824;-66
2021/06/03 01:13:52;;;;;;;5.50;3.10;;;16.60;92.10;;;;;;5054488;28;20455;-66
2021/06/03 01:16:19;;;;;;;6.20;2.90;;;16.50;92.40;;;;;;5055232;28;20502;-67
2021/06/03 01:18:45;;;;;;;5.00;2.90;;;16.40;93.00;;;;;;5054869;28;20469;-66
2021/06/03 01:21:26;;;;;;;5.33;3.13;;;16.30;93.20;;;;;;5055070;28;20820;-66
2021/06/03 01:24:16;;;;;;;4.73;2.43;;;16.30;93.30;;;;;;5046301;28;20458;-65
2021/06/03 01:26:44;;;;;;;7.10;3.30;;;16.30;93.40;;;;;;5038082;28;20925;-67
2021/06/03 01:29:10;;;;;;;6.27;2.80;;;16.20;93.60;;;;;;5054849;28;20923;-69
2021/06/03 01:31:36;;;;;;;5.70;2.87;;;16.10;94.10;;;;;;5054840;28;20799;-66
2021/06/03 01:34:03;;;;;;;4.93;2.77;;;16.10;94.70;;;;;;5054433;28;20461;-66
2021/06/03 01:36:29;;;;;;;5.87;2.87;;;16.00;95.10;;;;;;5054808;28;20752;-67
2021/06/03 01:38:55;;;;;;;5.50;2.73;;;16.00;95.20;;;;;;5043762;28;20555;-66
2021/06/03 01:41:22;;;;;;;5.37;2.90;;;16.00;95.20;;;;;;5034827;28;20527;-66
2021/06/03 01:43:48;;;;;;;5.40;2.90;;;15.90;95.30;;;;;;5033775;28;20435;-67
2021/06/03 01:46:14;;;;;;;4.90;2.80;;;15.90;95.30;;;;;;5034537;28;20405;-66
2021/06/03 01:48:42;;;;;;;5.93;2.57;;;15.90;95.30;;;;;;5034489;28;20419;-66
2021/06/03 01:51:11;;;;;;;5.00;2.43;;;15.90;95.60;;;;;;5034663;28;20902;-66
2021/06/03 01:53:39;;;;;;;6.83;3.13;;;15.90;95.70;;;;;;5043902;28;20870;-67
2021/06/03 01:56:09;;;;;;;5.40;2.80;;;15.90;95.70;;;;;;5052839;28;20529;-66
2021/06/03 01:58:34;;;;;;;6.40;3.37;;;15.80;96.10;;;;;;5053957;28;20466;-67
2021/06/03 02:01:01;;;;;;;5.00;2.43;;;15.80;96.60;;;;;;5049124;28;20454;-65
2021/06/03 02:03:27;;;;;;;4.40;2.40;;;15.70;96.80;;;;;;5033017;28;20193;-66
2021/06/03 02:05:54;;;;;;;6.63;2.70;;;15.80;96.90;;;;;;5034252;28;20443;-65
2021/06/03 02:08:20;;;;;;;7.10;3.30;;;15.80;97.00;;;;;;5034151;28;20431;-67
2021/06/03 02:10:47;;;;;;;7.60;3.63;;;15.70;97.80;;;;;;5034271;28;20428;-66
2021/06/03 02:13:15;;;;;;;6.17;3.17;;;15.70;97.80;;;;;;5033590;28;20427;-66
2021/06/03 02:15:49;;;;;;;6.43;3.07;;;15.70;98.00;;;;;;5038266;28;20561;-67
2021/06/03 02:18:16;;;;;;;5.27;3.10;;;15.70;98.20;;;;;;5053847;28;20506;-67
2021/06/03 02:20:47;;;;;;;6.93;2.60;;;15.60;98.90;;;;;;5054042;28;20410;-67
2021/06/03 02:23:15;;;;;;;7.30;4.17;;;15.60;99.00;;;;;;5053527;28;20408;-66
2021/06/03 02:25:41;;;;;;;6.40;3.00;;;15.70;99.30;;;;;;5053368;28;20885;-66
2021/06/03 02:28:07;;;;;;;6.30;3.30;;;15.70;99.50;;;;;;5053890;28;20480;-65
2021/06/03 02:30:33;;;;;;;5.60;3.17;;;15.70;99.60;;;;;;5048455;28;20881;-66
2021/06/03 02:33:02;;;;;;;6.33;3.33;;;15.70;99.70;;;;;;5033354;28;20455;-65
2021/06/03 02:35:28;;;;;;;5.40;2.70;;;15.70;99.90;;;;;;5032665;28;20471;-65
2021/06/03 02:37:54;;;;;;;5.60;2.70;;;15.60;99.90;;;;;;5033496;28;20487;-65
2021/06/03 02:40:23;;;;;;;5.30;2.90;;;15.60;99.90;;;;;;5035281;28;20408;-65
2021/06/03 02:42:49;;;;;;;5.83;2.63;;;15.60;99.90;;;;;;5051069;28;20943;-65
2021/06/03 02:45:19;;;;;;;6.17;3.50;;;15.60;99.90;;;;;;5053551;28;20432;-66
2021/06/03 02:47:45;;;;;;;5.27;2.60;;;15.60;99.90;;;;;;5053602;28;20904;-66
2021/06/03 02:50:12;;;;;;;6.47;2.93;;;15.60;99.90;;;;;;5053137;28;20444;-65
2021/06/03 02:52:40;;;;;;;5.67;2.70;;;15.60;99.90;;;;;;5033527;28;20244;-65
2021/06/03 02:55:09;;;;;;;7.00;3.83;;;15.60;99.90;;;;;;5032925;28;20424;-65
2021/06/03 02:57:35;;;;;;;5.30;3.20;;;15.60;99.90;;;;;;5033129;28;20566;-67
2021/06/03 03:00:01;;;;;;;5.33;3.03;;;15.60;99.90;;;;;;5033307;28;20511;-66
2021/06/03 03:02:27;;;;;;;7.67;3.20;;;15.60;99.90;;;;;;5033509;28;20579;-66
2021/06/03 03:04:52;;;;;;;6.03;3.03;;;15.60;99.90;;;;;;5032900;28;20526;-66
2021/06/03 03:07:18;;;;;;;7.10;3.83;;;15.60;99.90;;;;;;5052837;28;20180;-65
2021/06/03 03:09:43;;;;;;;10.37;4.37;;;15.60;99.90;;;;;;5053111;28;20267;-66
2021/06/03 03:12:11;;;;;;;6.63;3.33;;;15.70;99.90;;;;;;5053137;28;20185;-66
2021/06/03 03:14:40;;;;;;;6.43;3.70;;;15.70;99.90;;;;;;5054530;28;20257;-66
2021/06/03 03:17:05;;;;;;;8.07;3.43;;;15.70;99.90;;;;;;5057452;28;20434;-66
2021/06/03 03:19:32;;;;;;;6.57;3.67;;;15.60;99.90;;;;;;5057287;28;20496;-66
2021/06/03 03:21:59;;;;;;;6.10;3.23;;;15.60;99.90;;;;;;5052479;28;20601;-66
2021/06/03 03:24:25;;;;;;;6.90;3.40;;;15.60;99.90;;;;;;5056528;28;20537;-66
2021/06/03 03:26:51;;;;;;;5.73;3.10;;;15.60;99.90;;;;;;5057272;28;20403;-66
2021/06/03 03:29:16;;;;;;;5.60;2.70;;;15.60;99.90;;;;;;5057150;28;20567;-65
2021/06/03 03:31:42;;;;;;;6.43;2.70;;;15.60;99.90;;;;;;5043405;28;20459;-66
2021/06/03 03:34:08;;;;;;;7.97;3.27;;;15.60;99.90;;;;;;5036596;28;20235;-65
2021/06/03 03:36:33;;;;;;;6.43;3.17;;;15.60;99.90;;;;;;5037134;28;20620;-66
2021/06/03 03:38:59;;;;;;;6.00;3.33;;;15.60;99.90;;;;;;5036832;28;20596;-66
2021/06/03 03:41:25;;;;;;;6.97;2.97;;;15.60;99.90;;;;;;5036960;28;20276;-66
2021/06/03 03:43:51;;;;;;;6.33;3.37;;;15.60;99.90;;;;;;5036333;28;20179;-66
2021/06/03 03:46:17;;;;;;;8.60;3.20;;;15.60;99.90;;;;;;5039084;28;20435;-66
2021/06/03 03:48:43;;;;;;;4.93;2.53;;;15.60;99.90;;;;;;5036713;28;20434;-66
2021/06/03 03:51:12;;;;;;;6.77;2.80;;;15.60;99.90;;;;;;5036672;28;20481;-66
2021/06/03 03:53:40;;;;;;;5.93;2.63;;;15.60;99.90;;;;;;5036466;28;20419;-66
2021/06/03 03:56:06;;;;;;;6.40;3.80;;;15.70;99.90;;;;;;5037087;28;20419;-66
2021/06/03 03:58:32;;;;;;;6.00;2.70;;;15.70;99.90;;;;;;5036498;28;20479;-66
2021/06/03 04:00:58;;;;;;;6.37;3.17;;;15.80;99.90;;;;;;5037523;28;20432;-66
2021/06/03 04:03:23;;;;;;;5.87;2.90;;;15.90;99.90;;;;;;5035888;28;20431;-66
2021/06/03 04:05:49;;;;;;;5.30;3.00;;;16.00;99.90;;;;;;5035921;28;20192;-67
2021/06/03 04:08:14;;;;;;;6.97;2.73;;;16.10;99.90;;;;;;5034462;28;20184;-66
2021/06/03 04:10:40;;;;;;;5.33;3.23;;;16.10;99.90;;;;;;5035715;28;20182;-66
2021/06/03 04:13:06;;;;;;;5.67;3.20;;;16.10;99.90;;;;;;5035541;28;20191;-66
2021/06/03 04:15:31;;;;;;;4.90;2.50;;;16.20;99.90;;;;;;5043548;28;20208;-66
2021/06/03 04:17:57;;;;;;;4.73;2.40;;;16.20;99.90;;;;;;5055173;28;20258;-66
2021/06/03 04:20:23;;;;;;;5.50;3.07;;;16.30;99.90;;;;;;5055421;28;20165;-66
2021/06/03 04:22:51;;;;;;;6.40;2.60;;;16.40;99.90;;;;;;5055040;28;20188;-66
2021/06/03 04:25:16;;;;;;;7.00;3.00;;;16.40;99.90;;;;;;5054741;28;20424;-66
2021/06/03 04:27:43;;;;;;;5.93;3.10;;;16.50;99.90;;;;;;5055178;28;20514;-66
2021/06/03 04:30:12;;;;;;;6.37;2.90;;;16.60;99.90;;;;;;5047720;28;20185;-66
2021/06/03 04:32:38;;;;;;;4.73;2.73;;;16.60;99.90;;;;;;5035160;28;20408;-66
2021/06/03 04:35:05;;;;;;;6.90;3.73;;;16.70;99.90;;;;;;5034825;28;20440;-66
2021/06/03 04:37:31;;;;;;;7.73;3.20;;;16.60;99.90;;;;;;5034248;28;20868;-66
2021/06/03 04:39:57;;;;;;;5.60;2.97;;;16.60;99.90;;;;;;5035093;28;20415;-66
2021/06/03 04:42:22;;;;;;;4.63;2.60;;;16.60;99.90;;;;;;5033743;28;20179;-66
2021/06/03 04:44:48;;;;;;;5.90;3.20;;;16.60;99.90;;;;;;5041276;28;20455;-67
2021/06/03 04:47:14;;;;;;;4.97;2.83;;;16.60;99.90;;;;;;5055073;28;20165;-66
2021/06/03 04:49:39;;;;;;;10.00;3.53;;;16.60;99.90;;;;;;5054921;28;20216;-66
2021/06/03 04:54:50;;;;;;;6.67;3.03;;;16.70;99.90;;;;;;5054656;28;20615;-66
2021/06/03 04:57:15;;;;;;;6.20;3.43;;;16.60;99.90;;;;;;5054606;28;20439;-66
2021/06/03 04:59:41;;;;;;;7.00;3.00;;;16.70;99.90;;;;;;5054893;28;20237;-66
2021/06/03 05:02:07;;;;;;;5.53;2.83;;;16.70;99.90;;;;;;5054497;28;20260;-66
2021/06/03 05:04:32;;;;;;;5.20;2.93;;;16.80;99.90;;;;;;5052509;28;20686;-67
2021/06/03 05:06:58;;;;;;;5.67;3.20;;;16.90;99.90;;;;;;5053915;28;20181;-66
2021/06/03 05:09:24;;;;;;;5.83;3.17;;;17.00;99.90;;;;;;5054284;28;20238;-66
2021/06/03 05:11:49;;;;;;;5.10;2.50;;;17.10;99.90;;;;;;5054474;28;20178;-66
2021/06/03 05:14:15;;;;;;;8.83;4.17;;;17.20;99.90;;;;;;5054257;28;20193;-66
2021/06/03 05:16:41;;;;;;;7.10;2.90;;;17.30;99.90;;;;;;5054567;28;20192;-67
2021/06/03 05:19:07;;;;;;;7.13;2.40;;;17.40;99.90;;;;;;5035807;28;20210;-67
2021/06/03 05:21:32;;;;;;;6.67;3.20;;;17.50;99.90;;;;;;5034372;28;20427;-66
2021/06/03 05:23:58;;;;;;;7.10;3.57;;;17.50;99.90;;;;;;5034121;28;20174;-67
2021/06/03 05:26:24;;;;;;;6.43;3.63;;;17.60;99.90;;;;;;5034367;28;20178;-67
2021/06/03 05:28:49;;;;;;;6.17;3.00;;;17.70;99.90;;;;;;5034428;28;20175;-66
2021/06/03 05:31:15;;;;;;;5.73;3.00;;;17.70;99.90;;;;;;5034190;28;20622;-66
2021/06/03 05:33:41;;;;;;;5.40;2.93;;;17.80;99.90;;;;;;5050113;28;20553;-66
2021/06/03 05:36:06;;;;;;;6.57;2.67;;;17.90;99.90;;;;;;5053424;28;20182;-66
2021/06/03 05:38:32;;;;;;;7.43;3.63;;;18.00;99.90;;;;;;5053606;28;20297;-66
2021/06/03 05:40:58;;;;;;;6.30;3.10;;;18.10;99.90;;;;;;5054223;28;20264;-66
2021/06/03 05:43:23;;;;;;;5.90;3.30;;;18.10;99.90;;;;;;5054307;28;20324;-66
2021/06/03 05:45:49;;;;;;;6.03;2.80;;;18.10;99.90;;;;;;5054337;28;20190;-66
2021/06/03 05:48:15;;;;;;;5.80;2.73;;;18.00;99.90;;;;;;5039072;28;20192;-66
2021/06/03 05:50:40;;;;;;;8.47;3.53;;;18.10;99.90;;;;;;5034655;28;20536;-66
2021/06/03 05:53:06;;;;;;;4.97;2.60;;;18.10;99.90;;;;;;5032951;28;20651;-66
2021/06/03 05:55:32;;;;;;;12.40;3.50;;;18.20;99.90;;;;;;5034431;28;20666;-66
2021/06/03 05:57:58;;;;;;;6.80;3.20;;;18.20;99.90;;;;;;5034158;28;20217;-66
2021/06/03 06:00:30;;;;;;;4.53;2.53;;;18.30;99.90;;;;;;5034348;28;20642;-66
2021/06/03 06:03:18;;;;;;;5.97;3.13;;;18.40;99.90;;;;;;5048311;28;20428;-67
2021/06/03 06:08:28;;;;;;;9.30;4.00;;;18.60;99.90;;;;;;5054507;28;20550;-66
2021/06/03 06:10:54;;;;;;;5.37;3.20;;;18.70;99.90;;;;;;5052361;28;20461;-66
2021/06/03 06:13:21;;;;;;;5.60;2.67;;;18.80;99.90;;;;;;5053718;28;20649;-67
2021/06/03 06:15:47;;;;;;;6.03;3.13;;;19.10;99.90;;;;;;5053985;28;20219;-66
2021/06/03 06:18:13;;;;;;;6.00;3.67;;;19.50;99.90;;;;;;5053993;28;20471;-67
2021/06/03 06:20:40;;;;;;;5.70;2.50;;;19.80;99.40;;;;;;5042174;28;20425;-67
2021/06/03 06:23:07;;;;;;;4.70;2.43;;;20.20;98.60;;;;;;5033636;28;20405;-66
2021/06/03 06:25:33;;;;;;;5.30;2.67;;;20.50;98.20;;;;;;5033658;28;20433;-65
2021/06/03 06:27:58;;;;;;;5.30;2.70;;;20.70;96.70;;;;;;5034081;28;20421;-67
2021/06/03 06:30:26;;;;;;;4.23;2.43;;;20.90;96.30;;;;;;5033970;28;20178;-65
2021/06/03 06:32:52;;;;;;;4.50;2.67;;;21.00;95.90;;;;;;5033414;28;20410;-66
2021/06/03 06:35:18;;;;;;;4.87;2.70;;;21.10;95.80;;;;;;5043512;28;20505;-65
2021/06/03 06:37:44;;;;;;;5.73;2.90;;;21.30;95.60;;;;;;5052712;28;20282;-65
2021/06/03 06:40:10;;;;;;;7.27;2.33;;;21.50;95.90;;;;;;5053972;28;20408;-65
2021/06/03 06:42:36;;;;;;;5.83;2.53;;;21.60;95.40;;;;;;5053176;28;20494;-66
2021/06/03 06:45:06;;;;;;;5.40;2.63;;;21.70;95.40;;;;;;5053129;28;20456;-67
2021/06/03 06:47:32;;;;;;;5.60;2.80;;;21.80;95.50;;;;;;5053620;28;20177;-66
2021/06/03 06:49:58;;;;;;;5.00;2.50;;;21.90;96.10;;;;;;5043068;28;20431;-67
2021/06/03 06:52:24;;;;;;;4.93;2.30;;;22.00;95.80;;;;;;5051656;28;20513;-67
2021/06/03 06:54:49;;;;;;;4.80;2.60;;;22.20;95.20;;;;;;5052784;28;20220;-67
2021/06/03 06:57:15;;;;;;;4.37;2.20;;;22.40;95.00;;;;;;5044017;28;20257;-66
2021/06/03 06:59:41;;;;;;;4.80;2.67;;;22.60;94.80;;;;;;5033404;28;20301;-66
2021/06/03 07:02:07;;;;;;;4.83;2.60;;;22.70;94.70;;;;;;5035171;28;20442;-66
2021/06/03 07:04:33;;;;;;;6.50;2.20;;;22.60;94.60;;;;;;5052786;28;20195;-66
2021/06/03 07:06:58;;;;;;;5.53;2.77;;;22.50;94.80;;;;;;5053131;28;20404;-66
2021/06/03 07:09:24;;;;;;;5.10;3.00;;;22.30;95.10;;;;;;5053377;28;20181;-67
2021/06/03 07:11:50;;;;;;;5.03;2.27;;;22.10;95.20;;;;;;5053148;28;20235;-66
2021/06/03 07:14:16;;;;;;;4.10;2.13;;;22.00;95.40;;;;;;5051455;28;20487;-66
2021/06/03 07:16:42;;;;;;;4.93;2.50;;;21.90;95.70;;;;;;5052819;28;20268;-66
2021/06/03 07:19:08;;;;;;;5.70;2.97;;;21.90;95.90;;;;;;5053120;28;20714;-65
2021/06/03 07:21:34;;;;;;;5.13;2.50;;;21.90;95.90;;;;;;5053507;28;20391;-67
2021/06/03 07:24:00;;;;;;;5.70;2.60;;;21.80;96.30;;;;;;5052728;28;20177;-66
2021/06/03 07:26:25;;;;;;;4.70;2.73;;;21.80;96.50;;;;;;5053099;28;20891;-67
2021/06/03 07:28:52;;;;;;;4.83;2.53;;;21.70;96.90;;;;;;5053158;28;20567;-67
2021/06/03 07:31:18;;;;;;;5.90;2.87;;;21.70;97.00;;;;;;5053023;28;20178;-67
2021/06/03 07:33:43;;;;;;;4.93;2.90;;;21.80;97.10;;;;;;5050473;28;20561;-68
2021/06/03 07:36:09;;;;;;;5.20;3.80;;;21.90;96.90;;;;;;5044399;28;20198;-68
2021/06/03 07:38:35;;;;;;;4.43;2.23;;;22.00;96.80;;;;;;5034586;28;20258;-69
2021/06/03 07:41:02;;;;;;;5.93;2.93;;;22.00;96.90;;;;;;5053074;28;20175;-69
2021/06/03 07:43:28;;;;;;;4.60;2.80;;;22.00;97.20;;;;;;5052559;28;20876;-66
2021/06/03 07:45:55;;;;;;;4.30;2.30;;;22.00;97.30;;;;;;5052726;28;20511;-70
2021/06/03 07:48:21;;;;;;;4.30;2.20;;;21.80;97.40;;;;;;5052782;28;20173;-69
2021/06/03 07:50:47;;;;;;;6.20;3.10;;;21.80;97.60;;;;;;5052793;28;20808;-67
2021/06/03 07:53:13;;;;;;;4.53;2.37;;;21.80;97.80;;;;;;5050654;28;20474;-69
2021/06/03 07:55:39;;;;;;;6.27;3.13;;;21.80;98.10;;;;;;5032865;28;20433;-70
2021/06/03 07:58:09;;;;;;;5.00;2.70;;;21.90;98.20;;;;;;5032941;28;20934;-68
2021/06/03 08:00:36;;;;;;;5.67;3.30;;;21.90;97.90;;;;;;5031841;28;20831;-67
2021/06/03 08:03:04;;;;;;;4.73;2.90;;;22.00;97.90;;;;;;5035942;28;21174;-69
2021/06/03 08:05:30;;;;;;;4.60;2.40;;;22.00;98.00;;;;;;5036500;28;20457;-71
2021/06/03 08:07:56;;;;;;;4.70;2.30;;;22.10;97.80;;;;;;5036271;28;20498;-70
2021/06/03 08:10:28;;;;;;;5.40;2.93;;;22.20;97.70;;;;;;5035166;28;20180;-70
2021/06/03 08:12:56;;;;;;;4.60;2.37;;;22.40;97.50;;;;;;5050383;28;20443;-68
2021/06/03 08:15:24;;;;;;;5.47;2.73;;;22.50;97.30;;;;;;5054850;28;20430;-71
2021/06/03 08:17:50;;;;;;;5.10;2.57;;;22.60;97.50;;;;;;5056312;28;20458;-68
2021/06/03 08:20:19;;;;;;;5.80;2.50;;;22.80;97.30;;;;;;5056145;28;20558;-71
2021/06/03 08:22:45;;;;;;;4.73;2.30;;;23.00;97.10;;;;;;5055850;28;20209;-67
2021/06/03 08:25:13;;;;;;;4.70;2.73;;;23.20;96.80;;;;;;5054857;28;20948;-67
2021/06/03 08:27:39;;;;;;;4.50;2.20;;;23.40;96.30;;;;;;5039628;28;20544;-65
2021/06/03 08:30:10;;;;;;;4.27;2.03;;;23.50;96.20;;;;;;5036092;28;20492;-67
2021/06/03 08:32:36;;;;;;;4.53;2.30;;;23.80;96.10;;;;;;5046247;28;20250;-68
2021/06/03 08:35:02;;;;;;;5.27;2.90;;;24.00;95.70;;;;;;5055467;28;20863;-68
2021/06/03 08:37:27;;;;;;;5.30;2.10;;;24.20;95.60;;;;;;5055761;28;20180;-69
2021/06/03 08:39:53;;;;;;;4.57;2.33;;;24.40;95.10;;;;;;5054231;28;20209;-70
2021/06/03 08:42:19;;;;;;;6.03;2.90;;;24.50;95.10;;;;;;5055790;28;20252;-68
2021/06/03 08:44:45;;;;;;;4.73;2.63;;;24.70;94.90;;;;;;5055177;28;20228;-65
2021/06/03 08:47:11;;;;;;;4.40;2.10;;;24.90;94.30;;;;;;5055674;28;20408;-66
2021/06/03 08:49:38;;;;;;;4.70;2.40;;;25.10;94.00;;;;;;5055866;28;20263;-66
2021/06/03 08:52:06;;;;;;;4.17;2.07;;;25.40;93.70;;;;;;5055612;28;20416;-68
2021/06/03 08:54:34;;;;;;;4.17;1.80;;;25.70;93.70;;;;;;5048767;28;20441;-66
2021/06/03 08:57:00;;;;;;;3.90;2.00;;;26.70;92.00;;;;;;5033933;28;20448;-68
2021/06/03 08:59:26;;;;;;;3.60;1.80;;;27.60;90.90;;;;;;5034024;28;20465;-67
2021/06/03 09:01:52;;;;;;;3.93;1.90;;;28.50;86.70;;;;;;5035548;28;20544;-69
2021/06/03 09:04:18;;;;;;;3.60;1.63;;;29.20;84.50;;;;;;5034942;28;20264;-68
2021/06/03 09:06:44;;;;;;;4.60;2.63;;;30.30;80.50;;;;;;5035381;28;20174;-68
2021/06/03 09:09:13;;;;;;;3.50;2.10;;;31.40;76.40;;;;;;5035256;28;20402;-67
2021/06/03 09:11:39;;;;;;;3.77;2.07;;;32.40;71.10;;;;;;5034816;28;20205;-67
2021/06/03 09:14:07;;;;;;;4.87;2.03;;;33.40;68.90;;;;;;5034545;28;20958;-69
2021/06/03 09:16:38;;;;;;;3.50;1.97;;;34.10;64.30;;;;;;5035145;28;20391;-68
2021/06/03 09:19:12;;;;;;;3.73;2.30;;;34.80;62.10;;;;;;5038749;28;20438;-69
2021/06/03 09:21:44;;;;;;;4.57;2.40;;;35.20;60.80;;;;;;5055006;28;20450;-68
2021/06/03 09:24:13;;;;;;;3.70;2.33;;;35.40;59.10;;;;;;5054564;28;20406;-68
2021/06/03 09:26:45;;;;;;;4.63;2.50;;;35.70;57.80;;;;;;5054727;28;20437;-69
2021/06/03 09:29:19;;;;;;;3.40;2.23;;;35.90;57.50;;;;;;5053683;28;20951;-71
2021/06/03 09:31:45;;;;;;;3.60;2.37;;;35.90;57.00;;;;;;5034728;28;20423;-68
2021/06/03 09:34:14;;;;;;;3.57;2.23;;;36.10;57.00;;;;;;5034263;28;20520;-70
2021/06/03 09:36:46;;;;;;;4.33;2.80;;;36.20;56.20;;;;;;5034893;28;20179;-71
2021/06/03 09:39:28;;;;;;;3.77;2.50;;;36.40;55.80;;;;;;5034634;28;20460;-68
2021/06/03 09:42:09;;;;;;;3.60;2.43;;;37.00;54.70;;;;;;5034877;28;20405;-68
2021/06/03 09:44:47;;;;;;;3.83;2.57;;;37.30;53.30;;;;;;5054110;28;20914;-68
2021/06/03 09:47:15;;;;;;;3.23;2.30;;;37.30;52.80;;;;;;5054551;28;20807;-68
2021/06/03 09:49:46;;;;;;;3.00;2.20;;;37.30;52.80;;;;;;5054582;28;20522;-70
2021/06/03 09:52:20;;;;;;;3.27;2.47;;;37.30;52.50;;;;;;5054199;28;20419;-69
2021/06/03 09:54:56;;;;;;;2.67;1.87;;;37.60;52.30;;;;;;5053992;28;20841;-69
2021/06/03 09:57:31;;;;;;;3.77;2.60;;;38.00;50.80;;;;;;5053958;28;20889;-71
2021/06/03 10:00:05;;;;;;;3.57;2.47;;;38.30;50.60;;;;;;5054613;28;20408;-69
2021/06/03 10:02:36;;;;;;;3.50;2.00;;;38.30;50.60;;;;;;5054722;28;20416;-69
2021/06/03 10:05:02;;;;;;;2.70;1.80;;;37.80;49.40;;;;;;5053597;28;20791;-69
2021/06/03 10:07:30;;;;;;;3.30;2.07;;;37.40;49.80;;;;;;5047066;28;20431;-67
2021/06/03 10:09:58;;;;;;;3.10;1.80;;;37.10;50.20;;;;;;5034226;28;20487;-70
2021/06/03 10:12:24;;;;;;;2.90;1.97;;;37.00;49.50;;;;;;5033926;28;20405;-69
2021/06/03 10:14:55;;;;;;;2.90;2.10;;;37.00;50.30;;;;;;5033850;28;20506;-70
2021/06/03 10:17:31;;;;;;;2.73;1.53;;;36.70;50.00;;;;;;5034112;28;20401;-70
2021/06/03 10:20:15;;;;;;;3.30;1.90;;;36.70;49.00;;;;;;5034066;28;20809;-69
2021/06/03 10:22:47;;;;;;;3.00;1.80;;;36.90;49.60;;;;;;5033732;28;20448;-71
2021/06/03 10:25:17;;;;;;;2.67;1.43;;;37.50;49.90;;;;;;5033225;28;20512;-69
2021/06/03 10:27:46;;;;;;;3.30;1.90;;;37.80;49.60;;;;;;5034306;28;20401;-69
2021/06/03 10:30:20;;;;;;;3.97;2.07;;;37.10;47.60;;;;;;5036206;28;20421;-72
2021/06/03 10:32:49;;;;;;;2.80;1.50;;;37.00;48.10;;;;;;5053962;28;20412;-72
2021/06/03 10:35:18;;;;;;;2.70;1.40;;;36.70;47.90;;;;;;5053397;28;21017;-72
2021/06/03 10:37:45;;;;;;;3.00;1.87;;;36.50;48.60;;;;;;5052323;28;20767;-67
2021/06/03 10:40:17;;;;;;;2.90;1.80;;;36.40;49.50;;;;;;5053473;28;20415;-67
2021/06/03 10:42:43;;;;;;;3.77;2.07;;;36.40;49.60;;;;;;5051934;28;20882;-70
2021/06/03 10:45:12;;;;;;;2.83;1.77;;;36.20;49.30;;;;;;5049011;28;20412;-70
2021/06/03 10:47:41;;;;;;;3.70;1.70;;;36.20;48.70;;;;;;5033521;28;20380;-70
2021/06/03 10:50:11;;;;;;;3.10;1.80;;;36.10;48.40;;;;;;5033777;28;20379;-71
2021/06/03 10:52:37;;;;;;;3.33;1.87;;;35.50;48.90;;;;;;5033594;28;20368;-71
2021/06/03 10:55:06;;;;;;;3.20;1.90;;;34.70;50.00;;;;;;5038134;28;20490;-68
2021/06/03 10:57:54;;;;;;;3.40;1.90;;;34.50;50.60;;;;;;5050037;28;20414;-64
2021/06/03 11:00:38;;;;;;;3.07;1.77;;;34.50;51.20;;;;;;5034758;28;20410;-67
2021/06/03 11:03:19;;;;;;;3.37;1.80;;;34.20;51.60;;;;;;5033160;28;20379;-71
2021/06/03 11:06:21;;;;;;;3.33;1.83;;;34.40;51.20;;;;;;5033495;28;20517;-72
2021/06/03 11:09:02;;;;;;;3.93;1.87;;;34.20;52.50;;;;;;5033229;28;20430;-73
2021/06/03 11:11:28;;;;;;;3.27;2.07;;;33.90;52.50;;;;;;5033419;28;20399;-69
2021/06/03 11:13:54;;;;;;;3.20;2.00;;;33.40;52.10;;;;;;5051138;28;20753;-72
2021/06/03 11:16:34;;;;;;;3.47;1.70;;;32.60;53.50;;;;;;5053101;28;20375;-68
2021/06/03 11:19:00;;;;;;;3.50;2.20;;;31.80;55.10;;;;;;5053013;28;20177;-70
2021/06/03 11:21:32;;;;;;;4.20;2.20;;;31.20;56.50;;;;;;5038728;28;20398;-72
2021/06/03 11:24:20;;;;;;;4.73;2.53;;;30.60;56.70;;;;;;5052829;28;20256;-69
2021/06/03 11:26:51;;;;;;;3.20;1.67;;;30.30;56.30;;;;;;5039591;28;20429;-69
2021/06/03 11:29:22;;;;;;;3.90;2.03;;;29.90;57.20;;;;;;5033162;28;20883;-69
2021/06/03 11:32:10;;;;;;;4.00;1.80;;;29.60;57.40;;;;;;5033040;28;20895;-69
2021/06/03 11:34:42;;;;;;;4.03;1.97;;;29.40;59.40;;;;;;5032061;28;20513;-69
2021/06/03 11:37:13;;;;;;;3.50;1.67;;;29.40;59.70;;;;;;5061726;28;20415;-71
2021/06/03 11:39:48;;;;;;;3.93;1.63;;;29.50;61.20;;;;;;5057523;28;20419;-70
2021/06/03 11:42:26;;;;;;;3.33;1.53;;;29.40;59.30;;;;;;5072895;28;20491;-70
2021/06/03 11:45:17;;;;;;;3.60;1.70;;;29.20;59.40;;;;;;5076390;28;20427;-71
2021/06/03 11:47:43;;;;;;;3.40;1.87;;;29.10;58.90;;;;;;5076110;28;20402;-69
2021/06/03 11:50:12;;;;;;;3.70;2.00;;;28.80;59.10;;;;;;5076498;28;20420;-70
2021/06/03 11:52:38;;;;;;;4.30;2.20;;;28.60;60.00;;;;;;5076158;28;20176;-70
2021/06/03 11:55:09;;;;;;;3.43;1.50;;;28.40;59.70;;;;;;5075982;28;20425;-69
2021/06/03 11:57:37;;;;;;;3.40;1.80;;;28.30;61.60;;;;;;5076919;28;20447;-69
2021/06/03 12:00:12;;;;;;;4.33;2.30;;;28.30;63.10;;;;;;5039443;28;20506;-69
2021/06/03 12:02:38;;;;;;;4.17;2.00;;;28.30;62.20;;;;;;5036416;28;20807;-71
2021/06/03 12:05:13;;;;;;;3.80;1.73;;;28.40;63.30;;;;;;5034567;28;20428;-68
2021/06/03 12:07:52;;;;;;;3.90;2.23;;;28.40;65.00;;;;;;5036576;28;20181;-70
2021/06/03 12:10:40;;;;;;;4.93;2.47;;;28.40;68.90;;;;;;5040917;28;20480;-70
2021/06/03 12:13:19;;;;;;;4.17;2.30;;;28.50;70.60;;;;;;5055598;28;20411;-69
2021/06/03 12:15:46;;;;;;;3.60;2.23;;;28.30;72.70;;;;;;5056095;28;20491;-70
2021/06/03 12:18:11;;;;;;;4.40;2.40;;;28.10;72.50;;;;;;5055810;28;20422;-70
2021/06/03 12:20:37;;;;;;;3.60;1.80;;;28.00;73.20;;;;;;5056185;28;20805;-69
2021/06/03 12:23:08;;;;;;;3.93;1.83;;;27.80;73.40;;;;;;5055986;28;20230;-69
2021/06/03 12:25:42;;;;;;;3.97;2.20;;;27.60;74.60;;;;;;5056076;28;20187;-70
2021/06/03 12:28:11;;;;;;;3.33;1.70;;;27.50;75.20;;;;;;5037937;28;20433;-69
2021/06/03 12:30:39;;;;;;;3.70;2.00;;;27.20;75.00;;;;;;5034687;28;20427;-70
2021/06/03 12:33:10;;;;;;;4.33;2.40;;;27.10;77.30;;;;;;5035324;28;20434;-69
2021/06/03 12:36:05;;;;;;;3.73;2.00;;;27.10;77.70;;;;;;5035633;28;20414;-69
2021/06/03 12:38:42;;;;;;;4.10;2.13;;;27.20;78.30;;;;;;5035404;28;20538;-70
2021/06/03 12:41:31;;;;;;;3.83;2.10;;;27.20;78.00;;;;;;5035851;28;20414;-69
2021/06/03 12:43:59;;;;;;;5.53;2.40;;;27.20;77.90;;;;;;5035261;28;20467;-70
2021/06/03 12:46:34;;;;;;;3.60;1.70;;;27.10;79.60;;;;;;5034925;28;20413;-69
2021/06/03 12:49:02;;;;;;;5.00;2.10;;;26.90;79.40;;;;;;5035442;28;20529;-69
2021/06/03 12:51:31;;;;;;;4.50;2.17;;;26.70;80.40;;;;;;5035522;28;20498;-69
2021/06/03 12:53:56;;;;;;;4.83;1.90;;;26.40;82.80;;;;;;5035036;28;20416;-69
2021/06/03 12:56:23;;;;;;;6.10;1.97;;;26.30;82.20;;;;;;5035446;28;20500;-69
2021/06/03 12:58:55;;;;;;;3.77;1.73;;;26.10;81.80;;;;;;5035175;28;20205;-70